Time;durP1;ratioP1;P1;durP2;ratioP2;P2;SDS_P1;SDS_P2;PMS_P1;PMS_P2;Temp;Humidity;BMP_temperature;BMP_pressure;BME280_temperature;BME280_humidity;BME280_pressure;Samples;Min_cycle;Max_cycle;Signal;HPM_P1;HPM_P2
2023/07/16 00:01:57;;;;;;;1.63;1.10;;;;;;;19.13;100.00;98601.50;4936594;28;20303;-64
2023/07/16 00:04:23;;;;;;;1.67;1.00;;;;;;;19.10;100.00;98598.44;4931361;28;20231;-64
2023/07/16 00:06:50;;;;;;;1.63;1.27;;;;;;;19.13;100.00;98588.28;4933180;28;20235;-64
2023/07/16 00:09:17;;;;;;;1.53;1.10;;;;;;;19.05;100.00;98563.88;4934737;28;20285;-64
2023/07/16 00:11:43;;;;;;;1.20;0.80;;;;;;;19.05;100.00;98551.47;4953641;28;20606;-63
2023/07/16 00:14:11;;;;;;;2.50;1.50;;;;;;;18.96;100.00;98553.53;4955327;28;20227;-63
2023/07/16 00:16:37;;;;;;;1.50;1.10;;;;;;;18.90;100.00;98559.63;4940619;28;20704;-63
2023/07/16 00:19:05;;;;;;;2.67;1.23;;;;;;;18.92;100.00;98562.88;4934843;28;20310;-63
2023/07/16 00:21:32;;;;;;;5.27;1.30;;;;;;;18.88;100.00;98553.72;4923399;28;20331;-64
2023/07/16 00:23:58;;;;;;;2.80;1.50;;;;;;;18.85;100.00;98565.50;4956118;28;20234;-63
2023/07/16 00:26:25;;;;;;;2.40;1.10;;;;;;;18.82;100.00;98563.28;4944690;28;20434;-64
2023/07/16 00:28:51;;;;;;;2.30;1.27;;;;;;;18.85;100.00;98577.94;4952758;28;20718;-63
2023/07/16 00:31:18;;;;;;;1.60;1.20;;;;;;;18.82;100.00;98628.59;4956510;28;20885;-63
2023/07/16 00:33:45;;;;;;;3.47;1.10;;;;;;;18.92;100.00;98620.22;4935117;28;20239;-63
2023/07/16 00:36:12;;;;;;;1.93;1.20;;;;;;;18.92;100.00;98641.38;4960931;28;20238;-63
2023/07/16 00:38:40;;;;;;;2.60;1.03;;;;;;;18.83;100.00;98638.16;4939487;28;20759;-64
2023/07/16 00:41:07;;;;;;;3.17;1.40;;;;;;;18.81;100.00;98626.97;4969086;28;20235;-64
2023/07/16 00:43:33;;;;;;;4.43;1.30;;;;;;;18.69;100.00;98646.06;4940486;28;20241;-63
2023/07/16 00:46:00;;;;;;;1.47;1.23;;;;;;;18.67;100.00;98648.13;4947023;28;20231;-64
2023/07/16 00:48:27;;;;;;;2.00;1.40;;;;;;;18.51;100.00;98630.84;4961165;28;20227;-65
2023/07/16 00:50:54;;;;;;;2.27;1.30;;;;;;;18.43;100.00;98638.94;4933611;29;20239;-65
2023/07/16 00:53:22;;;;;;;4.97;1.17;;;;;;;18.37;100.00;98674.13;4954989;28;20239;-65
2023/07/16 00:55:49;;;;;;;1.50;1.40;;;;;;;18.33;100.00;98673.69;4966778;28;20234;-66
2023/07/16 00:58:16;;;;;;;2.53;1.23;;;;;;;18.22;100.00;98651.31;4956139;28;20233;-66
2023/07/16 01:00:43;;;;;;;2.40;1.40;;;;;;;18.19;100.00;98632.38;4963080;28;20288;-66
2023/07/16 01:03:13;;;;;;;1.13;0.90;;;;;;;18.16;100.00;98607.19;4981407;28;20234;-65
2023/07/16 01:05:46;;;;;;;1.90;1.20;;;;;;;18.14;100.00;98611.88;4978873;28;20736;-65
2023/07/16 01:08:15;;;;;;;1.57;1.23;;;;;;;18.11;100.00;98638.69;4959253;28;20226;-65
2023/07/16 01:10:44;;;;;;;1.57;1.10;;;;;;;18.01;100.00;98636.44;4944153;28;20255;-65
2023/07/16 01:13:15;;;;;;;2.00;1.30;;;;;;;17.99;100.00;98628.69;4935720;29;20717;-65
2023/07/16 01:15:41;;;;;;;2.43;1.10;;;;;;;17.94;100.00;98623.16;4941927;28;20233;-65
2023/07/16 01:18:08;;;;;;;3.13;1.10;;;;;;;17.89;100.00;98607.09;4937933;29;20230;-65
2023/07/16 01:20:34;;;;;;;1.90;1.23;;;;;;;17.90;100.00;98597.38;4940179;28;20554;-66
2023/07/16 01:23:28;;;;;;;3.33;1.00;;;;;;;17.85;100.00;98606.69;4945547;28;20341;-65
2023/07/16 01:26:07;;;;;;;1.27;1.00;;;;;;;17.88;100.00;98616.03;4959079;28;20281;-66
2023/07/16 01:28:53;;;;;;;2.80;1.30;;;;;;;17.84;100.00;98617.44;4959794;28;20255;-66
2023/07/16 01:31:22;;;;;;;2.97;1.30;;;;;;;17.79;100.00;98628.63;4952834;28;20245;-66
2023/07/16 01:33:51;;;;;;;2.07;1.30;;;;;;;17.63;100.00;98639.50;4976335;28;20262;-66
2023/07/16 01:36:19;;;;;;;1.60;1.20;;;;;;;17.72;100.00;98646.25;4940237;29;20229;-66
2023/07/16 01:38:45;;;;;;;3.03;1.30;;;;;;;17.58;100.00;98649.84;4962102;28;20232;-66
2023/07/16 01:41:12;;;;;;;3.40;1.10;;;;;;;17.60;100.00;98627.50;4964254;28;20221;-66
2023/07/16 01:43:39;;;;;;;2.37;1.30;;;;;;;17.51;100.00;98631.31;4963449;28;20236;-66
2023/07/16 01:46:05;;;;;;;4.77;1.23;;;;;;;17.49;100.00;98630.72;4974996;28;20244;-66
2023/07/16 01:48:36;;;;;;;2.97;1.30;;;;;;;17.41;100.00;98640.44;4943974;28;20238;-66
2023/07/16 01:51:03;;;;;;;3.23;1.73;;;;;;;17.37;100.00;98636.56;4937355;29;20233;-67
2023/07/16 01:53:31;;;;;;;5.80;1.50;;;;;;;17.34;100.00;98634.31;4943510;28;20233;-66
2023/07/16 01:55:58;;;;;;;4.47;1.33;;;;;;;17.32;100.00;98630.22;4947066;28;20743;-66
2023/07/16 01:58:24;;;;;;;2.63;1.47;;;;;;;17.28;100.00;98637.72;4958839;28;20229;-66
2023/07/16 02:00:51;;;;;;;3.07;1.40;;;;;;;17.30;100.00;98642.78;4945272;29;20239;-66
2023/07/16 02:03:18;;;;;;;5.67;1.63;;;;;;;17.26;100.00;98645.81;4944500;28;20231;-66
2023/07/16 02:05:46;;;;;;;3.00;1.33;;;;;;;17.27;100.00;98651.91;4944321;28;20243;-66
2023/07/16 02:08:12;;;;;;;4.40;1.60;;;;;;;17.30;100.00;98653.34;4946558;28;20573;-66
2023/07/16 02:10:39;;;;;;;2.67;1.77;;;;;;;17.33;100.00;98658.22;4945141;28;20240;-66
2023/07/16 02:13:05;;;;;;;3.83;1.63;;;;;;;17.31;100.00;98665.50;4966031;28;20237;-66
2023/07/16 02:15:32;;;;;;;6.57;1.60;;;;;;;17.27;100.00;98680.94;4962007;28;20581;-66
2023/07/16 02:18:04;;;;;;;3.07;1.60;;;;;;;17.27;100.00;98676.44;4964582;28;20229;-66
2023/07/16 02:20:30;;;;;;;4.37;1.30;;;;;;;17.33;100.00;98680.16;4955121;28;20736;-67
2023/07/16 02:23:03;;;;;;;5.27;1.47;;;;;;;17.28;100.00;98682.56;4964479;28;20244;-67
2023/07/16 02:25:29;;;;;;;2.67;1.40;;;;;;;17.24;100.00;98689.22;4962920;28;20362;-66
2023/07/16 02:28:02;;;;;;;3.37;1.67;;;;;;;17.23;100.00;98704.22;4961774;28;20240;-66
2023/07/16 02:30:30;;;;;;;3.23;1.50;;;;;;;17.27;100.00;98689.66;4951769;28;20233;-67
2023/07/16 02:33:01;;;;;;;3.10;1.80;;;;;;;17.28;100.00;98672.00;4945657;28;20625;-66
2023/07/16 02:35:28;;;;;;;4.97;1.60;;;;;;;17.28;100.00;98669.38;4935314;28;20292;-66
2023/07/16 02:37:58;;;;;;;5.30;1.70;;;;;;;17.30;100.00;98679.72;4950760;28;20232;-66
2023/07/16 02:40:28;;;;;;;4.90;1.70;;;;;;;17.30;100.00;98670.00;4963300;28;20235;-66
2023/07/16 02:42:54;;;;;;;3.90;1.60;;;;;;;17.27;100.00;98681.72;4964670;28;20244;-66
2023/07/16 02:45:21;;;;;;;3.83;1.43;;;;;;;17.25;100.00;98675.84;4947157;28;20228;-66
2023/07/16 02:47:47;;;;;;;5.53;1.53;;;;;;;17.18;100.00;98684.72;4934541;29;20271;-66
2023/07/16 02:50:16;;;;;;;4.80;1.80;;;;;;;17.08;100.00;98685.88;4943305;28;20236;-66
2023/07/16 02:52:43;;;;;;;3.70;1.60;;;;;;;17.08;100.00;98693.78;4927749;29;20256;-65
2023/07/16 02:55:09;;;;;;;3.13;1.87;;;;;;;17.06;100.00;98685.25;4944241;29;20240;-65
2023/07/16 02:57:37;;;;;;;3.27;1.50;;;;;;;17.02;100.00;98696.34;4931386;28;20228;-66
2023/07/16 03:00:05;;;;;;;4.23;1.70;;;;;;;16.98;100.00;98690.66;4945033;28;20233;-66
2023/07/16 03:02:32;;;;;;;5.03;1.57;;;;;;;16.89;100.00;98683.84;4933287;28;20732;-66
2023/07/16 03:04:59;;;;;;;5.73;1.93;;;;;;;16.97;100.00;98681.91;4945965;28;20245;-66
2023/07/16 03:07:25;;;;;;;2.60;1.43;;;;;;;16.90;100.00;98683.69;4932586;28;20738;-66
2023/07/16 03:09:52;;;;;;;4.07;1.77;;;;;;;16.88;100.00;98680.41;4963735;28;20575;-66
2023/07/16 03:12:18;;;;;;;3.33;1.43;;;;;;;16.85;100.00;98679.97;4964940;28;20240;-66
2023/07/16 03:14:46;;;;;;;3.80;1.30;;;;;;;16.79;100.00;98687.63;4957977;28;20236;-66
2023/07/16 03:17:13;;;;;;;4.10;1.43;;;;;;;16.77;100.00;98683.56;4965640;28;20232;-66
2023/07/16 03:19:39;;;;;;;3.57;1.50;;;;;;;16.74;100.00;98694.50;4966893;28;20290;-66
2023/07/16 03:22:06;;;;;;;4.73;1.70;;;;;;;16.68;100.00;98702.16;4977425;28;20719;-66
2023/07/16 03:24:33;;;;;;;4.03;1.40;;;;;;;16.63;100.00;98683.44;4955578;28;20223;-66
2023/07/16 03:27:00;;;;;;;6.17;1.70;;;;;;;16.60;100.00;98709.34;4954765;28;20315;-66
2023/07/16 03:29:28;;;;;;;4.23;1.77;;;;;;;16.65;100.00;98714.88;4981115;28;20230;-66
2023/07/16 03:31:57;;;;;;;3.70;1.53;;;;;;;16.63;100.00;98720.34;5186813;23;20277;-64
2023/07/16 03:34:24;;;;;;;6.63;1.40;;;;;;;16.59;100.00;98719.09;4966796;28;20308;-64
2023/07/16 03:36:50;;;;;;;5.90;1.70;;;;;;;16.63;100.00;98720.34;4988745;28;20235;-64
2023/07/16 03:39:17;;;;;;;4.50;1.57;;;;;;;16.64;100.00;98742.22;4970743;28;20230;-64
2023/07/16 03:41:44;;;;;;;2.30;1.53;;;;;;;16.63;100.00;98745.88;4968130;28;20247;-64
2023/07/16 03:44:11;;;;;;;5.80;1.80;;;;;;;16.67;100.00;98740.03;4970590;28;20227;-64
2023/07/16 03:46:37;;;;;;;7.67;2.10;;;;;;;16.67;100.00;98741.84;4983715;28;20229;-64
2023/07/16 03:49:07;;;;;;;5.53;1.80;;;;;;;16.69;100.00;98734.56;4977853;28;20238;-64
2023/07/16 03:51:34;;;;;;;2.87;1.50;;;;;;;16.73;100.00;98742.94;4983723;28;20256;-66
2023/07/16 03:54:00;;;;;;;3.13;1.63;;;;;;;16.74;100.00;98736.66;4961979;28;20624;-66
2023/07/16 03:56:27;;;;;;;4.37;1.67;;;;;;;16.83;100.00;98733.69;4984168;28;20223;-66
2023/07/16 03:58:54;;;;;;;3.00;1.50;;;;;;;16.84;100.00;98731.91;4986536;28;20238;-66
2023/07/16 04:01:20;;;;;;;6.20;1.70;;;;;;;16.85;100.00;98738.78;4984950;28;20234;-66
2023/07/16 04:03:47;;;;;;;3.60;1.40;;;;;;;16.88;100.00;98742.88;4969820;28;20228;-66
2023/07/16 04:06:15;;;;;;;8.13;1.63;;;;;;;16.92;100.00;98757.31;4987941;28;20230;-66
2023/07/16 04:08:41;;;;;;;6.53;1.57;;;;;;;16.93;100.00;98765.03;4985354;28;20728;-66
2023/07/16 04:11:08;;;;;;;4.23;1.73;;;;;;;16.94;100.00;98769.31;4987928;28;20313;-66
2023/07/16 04:13:35;;;;;;;3.80;1.43;;;;;;;16.92;100.00;98755.50;4984676;28;20237;-66
2023/07/16 04:16:01;;;;;;;3.30;1.63;;;;;;;16.94;100.00;98771.94;4987534;28;20230;-66
2023/07/16 04:18:28;;;;;;;3.97;1.67;;;;;;;17.04;100.00;98774.28;4984284;28;20305;-66
2023/07/16 04:20:55;;;;;;;7.73;1.90;;;;;;;17.14;98.73;98773.94;4987460;28;20242;-66
2023/07/16 04:23:23;;;;;;;5.37;1.47;;;;;;;17.20;100.00;98777.66;4984745;28;20231;-66
2023/07/16 04:25:52;;;;;;;3.97;1.57;;;;;;;17.27;100.00;98789.09;4987941;28;20239;-66
2023/07/16 04:28:19;;;;;;;6.93;1.50;;;;;;;17.31;97.09;98786.88;4968853;28;20226;-66
2023/07/16 04:30:45;;;;;;;5.63;1.60;;;;;;;17.40;95.75;98798.91;4983639;28;20251;-67
2023/07/16 04:33:12;;;;;;;4.50;1.50;;;;;;;17.41;98.29;98792.63;4987500;28;20269;-66
2023/07/16 04:35:38;;;;;;;2.77;1.60;;;;;;;17.40;96.05;98793.66;4984873;28;20235;-66
2023/07/16 04:38:05;;;;;;;3.20;1.40;;;;;;;17.35;97.96;98796.03;4987295;28;20274;-66
2023/07/16 04:40:36;;;;;;;2.57;1.50;;;;;;;17.32;96.63;98791.97;4911522;28;20253;-64
2023/07/16 04:43:03;;;;;;;3.80;1.23;;;;;;;17.32;96.29;98806.97;4952998;28;20227;-64
2023/07/16 04:45:29;;;;;;;6.00;1.40;;;;;;;17.34;95.43;98800.50;4964756;28;20222;-64
2023/07/16 04:48:01;;;;;;;4.87;1.57;;;;;;;17.39;95.17;98797.28;4966915;28;20240;-64
2023/07/16 04:50:28;;;;;;;2.57;1.43;;;;;;;17.40;95.60;98797.13;4964583;28;20236;-64
2023/07/16 04:52:54;;;;;;;3.23;1.33;;;;;;;17.45;95.32;98803.66;4967306;28;20236;-66
2023/07/16 04:55:21;;;;;;;3.53;1.50;;;;;;;17.50;95.41;98804.69;4965018;28;20241;-66
2023/07/16 04:57:49;;;;;;;4.80;1.63;;;;;;;17.51;96.28;98814.25;4967179;28;20315;-66
2023/07/16 05:00:15;;;;;;;3.03;1.73;;;;;;;17.53;95.40;98812.22;4967775;28;20313;-66
2023/07/16 05:02:42;;;;;;;4.57;1.50;;;;;;;17.64;94.84;98812.72;4964661;28;20245;-66
2023/07/16 05:05:09;;;;;;;2.83;1.23;;;;;;;17.82;95.37;98807.75;4967039;28;20239;-66
2023/07/16 05:07:36;;;;;;;2.37;1.33;;;;;;;17.97;92.37;98812.13;4964617;28;20263;-66
2023/07/16 05:10:02;;;;;;;3.50;1.40;;;;;;;18.00;93.16;98804.63;4967456;28;20235;-66
2023/07/16 05:12:29;;;;;;;3.23;1.43;;;;;;;18.00;91.88;98809.13;4962902;28;20234;-67
2023/07/16 05:14:57;;;;;;;3.00;1.30;;;;;;;18.09;92.80;98810.56;4966087;28;20553;-66
2023/07/16 05:17:23;;;;;;;4.93;1.73;;;;;;;18.06;93.45;98818.88;4963122;28;20221;-66
2023/07/16 05:19:50;;;;;;;6.00;1.50;;;;;;;17.96;90.79;98821.03;4967565;28;20232;-66
2023/07/16 05:22:17;;;;;;;3.60;1.60;;;;;;;17.94;88.18;98823.06;4966567;28;20227;-67
2023/07/16 05:24:44;;;;;;;4.67;1.20;;;;;;;17.94;89.28;98815.94;4963723;28;20700;-66
2023/07/16 05:27:10;;;;;;;4.20;1.30;;;;;;;17.95;90.55;98819.41;4966642;28;20252;-66
2023/07/16 05:29:37;;;;;;;3.33;1.43;;;;;;;17.97;89.15;98827.97;4963868;28;20256;-66
2023/07/16 05:32:06;;;;;;;3.10;1.40;;;;;;;18.02;89.47;98830.03;4964909;28;20227;-66
2023/07/16 05:34:33;;;;;;;3.63;1.80;;;;;;;17.98;91.49;98825.09;4964617;28;20266;-66
2023/07/16 05:37:00;;;;;;;5.40;1.30;;;;;;;18.08;89.54;98819.50;4967196;28;20220;-66
2023/07/16 05:39:26;;;;;;;6.60;1.40;;;;;;;18.19;89.76;98825.25;4963317;28;20235;-66
2023/07/16 05:41:53;;;;;;;2.93;1.43;;;;;;;18.20;89.78;98824.22;4965985;28;20301;-67
2023/07/16 05:44:20;;;;;;;4.57;1.67;;;;;;;18.11;88.90;98827.03;4963579;28;20233;-66
2023/07/16 05:46:46;;;;;;;3.13;1.30;;;;;;;18.01;87.28;98821.31;4966182;28;20238;-66
2023/07/16 05:49:14;;;;;;;3.87;1.37;;;;;;;18.00;91.29;98832.88;4965088;28;20230;-66
2023/07/16 05:51:41;;;;;;;5.43;1.57;;;;;;;18.12;85.74;98820.75;4963693;28;20273;-66
2023/07/16 05:54:07;;;;;;;5.63;1.37;;;;;;;18.32;85.95;98817.38;4966281;28;20236;-66
2023/07/16 05:56:34;;;;;;;6.63;1.60;;;;;;;18.44;85.03;98822.94;4964074;28;20229;-66
2023/07/16 05:59:01;;;;;;;5.63;1.50;;;;;;;18.63;82.65;98831.13;4966860;28;20351;-66
2023/07/16 06:01:27;;;;;;;2.43;1.30;;;;;;;18.80;83.69;98828.94;4962488;28;20236;-66
2023/07/16 06:03:54;;;;;;;4.87;1.40;;;;;;;18.77;80.29;98829.34;4964733;28;20243;-66
2023/07/16 06:06:22;;;;;;;7.97;1.53;;;;;;;18.83;80.40;98824.06;4963691;28;20261;-66
2023/07/16 06:08:49;;;;;;;4.13;1.60;;;;;;;18.77;83.48;98830.16;4957340;28;20230;-66
2023/07/16 06:11:15;;;;;;;3.23;1.30;;;;;;;18.62;83.59;98827.69;4966346;28;20237;-66
2023/07/16 06:13:42;;;;;;;6.83;1.63;;;;;;;18.60;82.39;98832.34;4963450;28;20238;-66
2023/07/16 06:16:09;;;;;;;6.60;1.40;;;;;;;18.80;86.04;98834.25;4966018;28;20325;-66
2023/07/16 06:18:35;;;;;;;3.10;1.30;;;;;;;19.09;82.38;98843.69;4963207;28;20247;-66
2023/07/16 06:21:02;;;;;;;4.53;1.27;;;;;;;19.25;80.88;98829.25;4966098;28;20244;-66
2023/07/16 06:23:30;;;;;;;5.00;1.90;;;;;;;19.17;77.93;98834.72;4962378;28;20248;-67
2023/07/16 06:25:57;;;;;;;7.10;1.50;;;;;;;19.39;78.32;98843.31;4965317;28;20234;-67
2023/07/16 06:28:24;;;;;;;4.83;1.67;;;;;;;19.55;78.58;98847.38;4963089;28;20720;-66
2023/07/16 06:30:52;;;;;;;7.53;1.30;;;;;;;19.64;79.42;98852.47;4966016;28;20227;-66
2023/07/16 06:33:18;;;;;;;3.13;1.20;;;;;;;19.60;77.39;98858.19;4965721;28;20223;-65
2023/07/16 06:35:46;;;;;;;3.83;1.60;;;;;;;19.51;77.49;98854.09;4963322;28;20223;-65
2023/07/16 06:38:13;;;;;;;2.93;1.10;;;;;;;19.60;76.05;98860.03;4965972;28;20238;-65
2023/07/16 06:40:41;;;;;;;4.23;1.43;;;;;;;19.73;80.41;98854.69;4962777;28;20245;-64
2023/07/16 06:43:07;;;;;;;4.20;1.13;;;;;;;19.83;76.67;98851.66;4965176;28;20592;-64
2023/07/16 06:45:34;;;;;;;5.50;1.27;;;;;;;19.96;76.45;98863.28;4963078;28;20233;-64
2023/07/16 06:48:01;;;;;;;2.87;1.37;;;;;;;20.34;76.47;98859.91;4964920;28;20259;-66
2023/07/16 06:50:28;;;;;;;2.63;1.93;;;;;;;20.38;72.72;98855.81;4962952;28;20236;-66
2023/07/16 06:52:54;;;;;;;6.00;1.30;;;;;;;20.60;72.67;98856.38;4969103;28;20245;-66
2023/07/16 06:55:21;;;;;;;4.53;1.50;;;;;;;20.79;72.19;98859.97;4966785;28;20725;-66
2023/07/16 06:57:49;;;;;;;6.23;1.43;;;;;;;20.74;70.67;98862.41;4943864;28;20226;-66
2023/07/16 07:00:16;;;;;;;8.10;1.63;;;;;;;20.77;70.60;98859.38;4969499;28;20244;-66
2023/07/16 07:02:42;;;;;;;4.37;1.80;;;;;;;20.91;69.48;98870.72;4965539;28;20307;-67
2023/07/16 07:05:09;;;;;;;4.53;1.40;;;;;;;21.02;71.90;98877.22;4969157;28;20240;-67
2023/07/16 07:07:36;;;;;;;5.80;1.20;;;;;;;21.28;66.63;98880.69;4966502;28;20226;-67
2023/07/16 07:10:03;;;;;;;6.33;1.40;;;;;;;21.06;67.10;98870.44;4968550;28;20232;-67
2023/07/16 07:12:29;;;;;;;4.90;1.20;;;;;;;21.09;67.37;98882.47;4966553;28;20246;-67
2023/07/16 07:14:57;;;;;;;4.97;1.10;;;;;;;21.07;69.40;98879.22;4969161;28;20937;-67
2023/07/16 07:17:24;;;;;;;3.13;1.40;;;;;;;21.15;71.83;98888.78;4965574;28;20246;-67
2023/07/16 07:19:50;;;;;;;3.10;1.30;;;;;;;21.02;66.22;98887.81;4968777;28;20754;-66
2023/07/16 07:22:17;;;;;;;3.70;1.27;;;;;;;20.60;72.09;98890.84;4969373;28;20895;-66
2023/07/16 07:24:44;;;;;;;5.93;2.07;;;;;;;21.01;76.48;98891.50;4965760;28;20714;-66
2023/07/16 07:27:11;;;;;;;2.67;1.13;;;;;;;21.29;72.89;98892.16;4968715;28;20263;-67
2023/07/16 07:29:37;;;;;;;2.83;1.60;;;;;;;21.37;71.54;98891.91;4965529;28;20231;-67
2023/07/16 07:32:06;;;;;;;3.27;1.30;;;;;;;21.39;70.02;98903.13;4966247;28;20600;-67
2023/07/16 07:34:33;;;;;;;3.47;1.50;;;;;;;21.68;68.85;98908.88;4965501;28;20652;-67
2023/07/16 07:36:59;;;;;;;5.00;1.40;;;;;;;21.82;69.64;98896.28;4968932;28;20239;-67
2023/07/16 07:39:26;;;;;;;4.13;1.50;;;;;;;21.43;69.82;98901.66;4965527;28;20236;-65
2023/07/16 07:41:52;;;;;;;5.70;1.40;;;;;;;21.39;68.92;98889.84;4968876;28;20248;-65
2023/07/16 07:44:19;;;;;;;7.77;1.47;;;;;;;20.89;72.01;98887.88;4967112;28;20244;-65
2023/07/16 07:46:45;;;;;;;3.47;1.17;;;;;;;21.28;73.51;98893.19;4964957;28;20238;-65
2023/07/16 07:49:13;;;;;;;5.43;1.33;;;;;;;21.46;67.33;98889.78;4968429;28;20298;-65
2023/07/16 07:51:40;;;;;;;3.47;1.73;;;;;;;21.33;70.73;98904.75;4965411;28;20247;-65
2023/07/16 07:54:06;;;;;;;3.93;1.53;;;;;;;21.59;67.41;98905.63;4968210;28;20223;-65
2023/07/16 07:56:33;;;;;;;4.17;1.40;;;;;;;21.44;67.67;98894.50;4966017;28;20291;-65
2023/07/16 07:59:00;;;;;;;4.13;1.20;;;;;;;21.73;70.96;98893.06;4968319;28;20243;-65
2023/07/16 08:01:26;;;;;;;4.87;1.63;;;;;;;22.21;66.89;98882.81;4962788;28;20242;-65
2023/07/16 08:03:53;;;;;;;4.20;1.47;;;;;;;22.18;68.81;98883.25;4966959;28;20711;-66
2023/07/16 08:06:21;;;;;;;3.17;1.30;;;;;;;22.22;67.07;98887.94;4965198;28;20643;-66
2023/07/16 08:08:47;;;;;;;4.47;1.30;;;;;;;22.57;65.00;98894.53;4943952;28;20236;-66
2023/07/16 08:11:14;;;;;;;3.10;1.10;;;;;;;22.63;67.56;98884.81;4967941;28;20323;-67
2023/07/16 08:13:41;;;;;;;3.47;1.43;;;;;;;22.23;67.33;98875.44;4965093;28;20287;-67
2023/07/16 08:16:09;;;;;;;4.70;1.40;;;;;;;22.24;63.38;98888.53;4967134;28;20251;-66
2023/07/16 08:18:35;;;;;;;3.23;1.67;;;;;;;22.20;66.95;98894.47;4965144;28;20660;-66
2023/07/16 08:21:02;;;;;;;3.77;1.30;;;;;;;22.42;67.63;98901.00;4967930;28;20293;-67
2023/07/16 08:23:30;;;;;;;3.40;1.40;;;;;;;22.63;64.98;98898.97;4964346;28;20245;-67
2023/07/16 08:25:56;;;;;;;3.83;1.33;;;;;;;23.00;67.35;98900.75;4967848;28;20573;-65
2023/07/16 08:28:23;;;;;;;3.60;1.67;;;;;;;22.91;63.51;98896.75;4965177;28;20779;-66
2023/07/16 08:30:50;;;;;;;4.80;1.50;;;;;;;23.09;62.18;98910.03;4966458;28;20323;-66
2023/07/16 08:33:16;;;;;;;4.63;1.40;;;;;;;23.08;61.32;98895.09;4966875;28;20239;-65
2023/07/16 08:35:43;;;;;;;6.47;1.40;;;;;;;22.89;62.03;98889.00;4964544;28;20330;-65
2023/07/16 08:38:10;;;;;;;3.70;1.30;;;;;;;22.68;63.76;98908.91;4963051;28;20233;-65
2023/07/16 08:40:38;;;;;;;4.23;1.63;;;;;;;22.66;63.86;98909.16;4965018;28;20593;-65
2023/07/16 08:43:06;;;;;;;4.43;1.30;;;;;;;22.41;62.74;98901.19;4967804;28;20232;-65
2023/07/16 08:45:39;;;;;;;6.73;1.40;;;;;;;21.97;60.80;98899.41;4940497;28;20225;-66
2023/07/16 08:48:07;;;;;;;2.47;1.13;;;;;;;21.77;62.43;98890.78;4965652;28;20581;-65
2023/07/16 08:50:36;;;;;;;4.73;1.60;;;;;;;22.06;64.47;98897.28;4964562;28;20231;-66
2023/07/16 08:53:04;;;;;;;4.37;1.20;;;;;;;22.15;64.03;98889.00;4966898;28;20243;-67
2023/07/16 08:55:31;;;;;;;3.87;1.50;;;;;;;22.15;66.35;98889.84;4964819;28;20719;-67
2023/07/16 08:58:05;;;;;;;3.17;1.30;;;;;;;22.14;66.63;98896.19;4966457;28;20227;-67
2023/07/16 09:00:32;;;;;;;4.13;1.30;;;;;;;22.07;66.72;98908.72;4962651;28;20227;-67
2023/07/16 09:03:02;;;;;;;3.40;1.27;;;;;;;22.22;63.20;98903.06;4967067;28;20271;-67
2023/07/16 09:05:30;;;;;;;6.20;1.80;;;;;;;22.04;59.91;98894.03;4964853;28;20235;-67
2023/07/16 09:08:02;;;;;;;14.70;2.33;;;;;;;21.67;63.69;98896.59;4967647;28;20683;-67
2023/07/16 09:10:30;;;;;;;3.30;1.30;;;;;;;21.76;61.31;98907.75;4964584;28;20707;-67
2023/07/16 09:13:03;;;;;;;6.97;1.80;;;;;;;21.78;62.64;98895.06;4966121;28;20286;-67
2023/07/16 09:15:30;;;;;;;6.30;1.73;;;;;;;22.20;61.66;98891.81;4963924;28;20246;-67
2023/07/16 09:18:02;;;;;;;4.07;1.37;;;;;;;22.25;62.81;98894.63;4966892;28;20227;-65
2023/07/16 09:20:30;;;;;;;5.77;1.57;;;;;;;22.35;61.77;98900.25;4964429;28;20243;-66
2023/07/16 09:23:01;;;;;;;7.47;1.40;;;;;;;23.09;59.84;98894.06;4966274;28;20322;-67
2023/07/16 09:25:28;;;;;;;6.43;1.60;;;;;;;22.91;60.15;98894.09;4947047;28;20749;-66
2023/07/16 09:28:04;;;;;;;6.07;1.40;;;;;;;23.43;59.45;98902.38;4965986;28;20236;-66
2023/07/16 09:30:32;;;;;;;4.87;1.63;;;;;;;23.88;57.68;98898.38;4963636;28;20229;-67
2023/07/16 09:33:10;;;;;;;3.97;1.60;;;;;;;23.45;56.33;98902.16;4965124;28;20334;-66
2023/07/16 09:35:37;;;;;;;8.43;1.93;;;;;;;23.78;56.44;98905.34;4964125;28;20723;-66
2023/07/16 09:38:05;;;;;;;3.50;1.40;;;;;;;24.43;54.24;98911.59;4966693;28;20228;-66
2023/07/16 09:40:32;;;;;;;6.10;1.77;;;;;;;23.40;55.17;98912.69;4964302;28;20717;-66
2023/07/16 09:43:04;;;;;;;2.43;1.23;;;;;;;23.94;55.26;98914.50;4966381;28;20234;-69
2023/07/16 09:45:30;;;;;;;3.97;1.50;;;;;;;24.23;52.53;98926.13;4962081;28;20228;-67
2023/07/16 09:48:02;;;;;;;4.10;1.40;;;;;;;23.06;55.20;98920.31;4965798;28;20758;-67
2023/07/16 09:50:30;;;;;;;3.97;1.37;;;;;;;22.24;57.78;98912.44;4963180;28;20881;-66
2023/07/16 09:53:00;;;;;;;2.97;1.43;;;;;;;22.69;58.12;98915.88;4966214;28;20240;-66
2023/07/16 09:55:27;;;;;;;4.50;1.50;;;;;;;23.16;55.47;98915.25;4963732;28;20229;-66
2023/07/16 09:57:57;;;;;;;6.87;1.70;;;;;;;22.64;57.49;98929.00;4966037;28;20228;-66
2023/07/16 10:00:26;;;;;;;3.90;1.53;;;;;;;22.81;58.53;98908.75;4962679;28;20316;-66
2023/07/16 10:02:53;;;;;;;4.63;1.50;;;;;;;23.09;58.07;98899.38;4965674;28;20242;-66
2023/07/16 10:05:24;;;;;;;5.20;1.20;;;;;;;23.16;54.22;98901.94;4963870;28;20300;-66
2023/07/16 10:07:53;;;;;;;4.97;1.50;;;;;;;22.82;58.13;98910.38;4964114;28;20332;-66
2023/07/16 10:10:19;;;;;;;3.83;1.57;;;;;;;22.72;57.29;98914.63;4966059;28;20237;-66
2023/07/16 10:12:56;;;;;;;3.60;1.40;;;;;;;23.52;55.64;98928.69;4961262;28;20409;-66
2023/07/16 10:15:28;;;;;;;3.67;1.60;;;;;;;22.74;56.34;98929.31;4961394;28;20226;-67
2023/07/16 10:17:55;;;;;;;4.47;1.60;;;;;;;23.18;55.05;98923.81;4965453;28;20282;-67
2023/07/16 10:20:29;;;;;;;5.50;1.73;;;;;;;23.11;55.78;98909.78;4945537;28;20228;-67
2023/07/16 10:23:14;;;;;;;3.43;1.50;;;;;;;23.08;55.41;98919.06;4964963;28;20244;-67
2023/07/16 10:25:41;;;;;;;3.47;1.60;;;;;;;23.25;54.88;98915.78;4945226;28;20298;-66
2023/07/16 10:28:07;;;;;;;5.73;1.80;;;;;;;23.19;55.04;98914.00;4965885;28;20237;-66
2023/07/16 10:30:35;;;;;;;6.53;1.40;;;;;;;23.02;55.90;98913.81;4962158;28;20385;-66
2023/07/16 10:33:06;;;;;;;4.03;1.50;;;;;;;23.24;54.28;98908.84;4964776;28;20245;-66
2023/07/16 10:35:35;;;;;;;3.63;1.50;;;;;;;23.83;54.27;98916.13;4961587;28;20275;-66
2023/07/16 10:38:02;;;;;;;3.23;1.67;;;;;;;23.86;55.12;98905.78;4964873;28;20244;-66
2023/07/16 10:40:28;;;;;;;8.53;2.10;;;;;;;24.30;53.98;98908.16;4961556;28;20701;-66
2023/07/16 10:42:58;;;;;;;5.67;1.70;;;;;;;23.67;55.93;98905.09;4964542;28;20238;-66
2023/07/16 10:45:25;;;;;;;4.00;1.47;;;;;;;23.77;55.07;98906.38;4960563;28;20235;-67
2023/07/16 10:47:55;;;;;;;4.40;1.70;;;;;;;24.43;54.22;98903.56;4964836;28;20329;-67
2023/07/16 10:50:23;;;;;;;4.00;1.50;;;;;;;24.13;55.11;98910.69;4963014;28;20316;-67
2023/07/16 10:52:53;;;;;;;5.60;1.60;;;;;;;24.37;52.07;98899.22;4964609;28;20696;-67
2023/07/16 10:55:20;;;;;;;4.67;1.70;;;;;;;24.00;53.99;98914.41;4964801;28;20650;-66
2023/07/16 10:57:48;;;;;;;4.67;1.70;;;;;;;24.46;53.68;98905.78;4963328;28;20236;-67
2023/07/16 11:00:16;;;;;;;3.47;1.57;;;;;;;24.83;53.52;98905.47;4965289;28;20239;-67
2023/07/16 11:02:43;;;;;;;5.93;1.50;;;;;;;25.20;50.31;98905.09;4960653;28;20301;-64
2023/07/16 11:05:15;;;;;;;6.73;1.87;;;;;;;25.11;48.95;98903.03;4943373;28;20239;-65
2023/07/16 11:07:50;;;;;;;5.73;1.53;;;;;;;24.49;52.87;98905.31;4918962;28;20245;-66
2023/07/16 11:10:19;;;;;;;4.20;1.67;;;;;;;24.48;49.57;98914.34;4919948;28;20228;-66
2023/07/16 11:12:54;;;;;;;5.20;1.40;;;;;;;24.45;48.10;98907.66;4885188;28;20234;-65
2023/07/16 11:15:40;;;;;;;6.53;1.77;;;;;;;24.06;50.56;98909.22;4947396;28;20258;-65
2023/07/16 11:18:10;;;;;;;4.10;1.40;;;;;;;24.49;50.33;98899.19;4907862;28;20254;-66
2023/07/16 11:20:38;;;;;;;4.33;1.43;;;;;;;24.45;51.88;98906.81;4927561;28;20354;-64
2023/07/16 11:23:05;;;;;;;5.10;1.60;;;;;;;23.95;50.54;98900.94;4931644;28;22035;-64
2023/07/16 11:25:32;;;;;;;2.17;1.27;;;;;;;23.97;50.15;98898.03;4911634;28;20773;-65
2023/07/16 11:28:02;;;;;;;4.17;1.60;;;;;;;24.57;49.46;98896.13;4935815;28;20344;-65
2023/07/16 11:30:29;;;;;;;3.63;1.30;;;;;;;24.87;48.30;98893.28;4947678;28;20229;-65
2023/07/16 11:33:01;;;;;;;3.97;1.70;;;;;;;24.90;50.83;98897.34;4954561;28;20242;-65